Time;durP1;ratioP1;P1;durP2;ratioP2;P2;SDS_P1;SDS_P2;PMS_P1;PMS_P2;Temp;Humidity;BMP_temperature;BMP_pressure;BME280_temperature;BME280_humidity;BME280_pressure;Samples;Min_cycle;Max_cycle;Signal;HPM_P1;HPM_P2
2022/10/13 00:01:35;;;;;;;5.15;1.83;;;;;;;;;;5082883;28;20053;-78
2022/10/13 00:04:04;;;;;;;3.13;1.40;;;;;;;;;;5079630;28;20044;-78
2022/10/13 00:06:32;;;;;;;3.15;1.58;;;;;;;;;;5079105;28;20048;-78
2022/10/13 00:09:00;;;;;;;5.65;1.80;;;;;;;;;;5091592;28;20511;-79
2022/10/13 00:11:29;;;;;;;2.55;1.27;;;;;;;;;;5088274;28;20052;-78
2022/10/13 00:13:59;;;;;;;2.88;1.60;;;;;;;;;;5090730;28;20047;-78
2022/10/13 00:16:29;;;;;;;4.38;1.83;;;;;;;;;;5076508;28;20059;-78
2022/10/13 00:18:58;;;;;;;1.83;1.30;;;;;;;;;;5084181;28;20052;-78
2022/10/13 00:21:27;;;;;;;2.63;1.42;;;;;;;;;;5088120;28;20070;-80
2022/10/13 00:23:56;;;;;;;3.22;1.85;;;;;;;;;;5088866;28;20054;-78
2022/10/13 00:26:25;;;;;;;4.85;1.75;;;;;;;;;;5078298;28;20048;-80
2022/10/13 00:28:55;;;;;;;3.70;2.17;;;;;;;;;;5088765;28;20052;-80
2022/10/13 00:31:24;;;;;;;7.60;1.88;;;;;;;;;;5088057;28;20385;-79
2022/10/13 00:33:53;;;;;;;4.15;1.50;;;;;;;;;;5092295;28;20070;-79
2022/10/13 00:36:22;;;;;;;9.55;2.10;;;;;;;;;;5084682;28;20044;-79
2022/10/13 00:38:50;;;;;;;7.22;1.80;;;;;;;;;;5088427;28;20040;-79
2022/10/13 00:41:19;;;;;;;3.22;1.75;;;;;;;;;;5090408;28;20051;-79
2022/10/13 00:43:52;;;;;;;4.75;1.50;;;;;;;;;;5089431;28;20102;-79
2022/10/13 00:46:20;;;;;;;4.07;2.17;;;;;;;;;;5078739;28;20051;-79
2022/10/13 00:48:49;;;;;;;2.67;1.25;;;;;;;;;;5086853;28;20148;-79
2022/10/13 00:51:21;;;;;;;3.50;1.63;;;;;;;;;;5083160;28;20048;-79
2022/10/13 00:53:50;;;;;;;4.28;2.13;;;;;;;;;;5080770;28;20488;-79
2022/10/13 00:56:20;;;;;;;3.08;2.13;;;;;;;;;;5078973;28;20059;-79
2022/10/13 00:58:49;;;;;;;10.48;2.08;;;;;;;;;;5086548;28;20048;-79
2022/10/13 01:01:17;;;;;;;5.18;1.48;;;;;;;;;;5084723;28;20306;-79
2022/10/13 01:03:47;;;;;;;8.18;1.70;;;;;;;;;;5087612;28;20047;-79
2022/10/13 01:06:16;;;;;;;4.82;2.20;;;;;;;;;;5077859;28;20048;-79
2022/10/13 01:08:53;;;;;;;4.38;1.80;;;;;;;;;;5086880;28;20455;-79
2022/10/13 01:11:31;;;;;;;2.70;1.42;;;;;;;;;;5084037;28;20048;-79
2022/10/13 01:14:03;;;;;;;9.52;2.55;;;;;;;;;;5090151;28;20116;-79
2022/10/13 01:16:35;;;;;;;5.95;2.22;;;;;;;;;;5081512;28;20507;-79
2022/10/13 01:19:08;;;;;;;4.65;1.77;;;;;;;;;;5086549;28;20049;-79
2022/10/13 01:21:39;;;;;;;3.42;1.85;;;;;;;;;;5084696;28;20044;-79
2022/10/13 01:24:17;;;;;;;2.65;1.33;;;;;;;;;;5090901;28;20058;-79
2022/10/13 01:27:15;;;;;;;7.80;1.70;;;;;;;;;;5085635;28;20049;-79
2022/10/13 01:30:03;;;;;;;4.47;1.65;;;;;;;;;;4995786;28;20046;-79
2022/10/13 01:32:34;;;;;;;17.30;1.77;;;;;;;;;;5079534;28;20048;-79
2022/10/13 01:35:06;;;;;;;1.48;1.08;;;;;;;;;;5077433;28;20492;-79
2022/10/13 01:37:37;;;;;;;3.65;1.80;;;;;;;;;;5087011;28;20035;-78
2022/10/13 01:40:07;;;;;;;2.83;1.45;;;;;;;;;;5085317;28;20054;-79
2022/10/13 01:42:37;;;;;;;5.15;1.83;;;;;;;;;;5081482;28;20047;-79
2022/10/13 01:45:08;;;;;;;4.13;1.48;;;;;;;;;;5077106;28;20055;-79
2022/10/13 01:47:37;;;;;;;3.70;2.28;;;;;;;;;;5083020;28;20059;-79
2022/10/13 01:50:06;;;;;;;2.60;1.20;;;;;;;;;;5075863;28;20528;-79
2022/10/13 01:52:37;;;;;;;5.00;2.55;;;;;;;;;;5091111;28;20040;-79
2022/10/13 01:55:06;;;;;;;2.90;1.05;;;;;;;;;;5074802;28;20055;-79
2022/10/13 01:57:36;;;;;;;1.65;1.17;;;;;;;;;;5084242;28;20044;-79
2022/10/13 02:00:07;;;;;;;4.85;1.88;;;;;;;;;;5083351;28;20052;-79
2022/10/13 02:02:40;;;;;;;6.97;2.40;;;;;;;;;;5080029;28;20488;-77
2022/10/13 02:05:13;;;;;;;4.10;2.15;;;;;;;;;;5073438;28;20056;-79
2022/10/13 02:07:45;;;;;;;7.88;2.03;;;;;;;;;;5083763;28;20083;-79
2022/10/13 02:10:15;;;;;;;6.78;2.55;;;;;;;;;;5076279;28;20044;-79
2022/10/13 02:12:46;;;;;;;5.45;1.98;;;;;;;;;;5076725;28;20416;-78
2022/10/13 02:15:17;;;;;;;9.48;3.67;;;;;;;;;;5075278;28;20051;-79
2022/10/13 02:17:47;;;;;;;3.78;2.10;;;;;;;;;;5088741;28;20071;-79
2022/10/13 02:20:15;;;;;;;3.67;1.63;;;;;;;;;;5092304;28;20044;-79
2022/10/13 02:22:46;;;;;;;3.15;1.52;;;;;;;;;;5085971;28;20056;-79
2022/10/13 02:25:15;;;;;;;1.40;1.30;;;;;;;;;;5075869;28;20545;-79
2022/10/13 02:27:43;;;;;;;4.93;1.60;;;;;;;;;;5073498;28;20051;-78
2022/10/13 02:30:20;;;;;;;1.60;1.30;;;;;;;;;;5089832;28;20051;-79
2022/10/13 02:32:50;;;;;;;8.40;1.55;;;;;;;;;;5083788;28;20459;-78
2022/10/13 02:35:18;;;;;;;5.65;1.52;;;;;;;;;;5083613;28;20051;-77
2022/10/13 02:37:46;;;;;;;8.82;1.38;;;;;;;;;;5081268;28;20054;-77
2022/10/13 02:40:15;;;;;;;3.63;2.03;;;;;;;;;;5081220;28;20048;-77
2022/10/13 02:42:43;;;;;;;3.55;1.48;;;;;;;;;;5085292;28;20052;-77
2022/10/13 02:45:12;;;;;;;2.75;1.60;;;;;;;;;;5079766;28;20037;-76
2022/10/13 02:47:40;;;;;;;2.83;1.65;;;;;;;;;;5080219;28;20048;-77
2022/10/13 02:50:10;;;;;;;4.95;2.08;;;;;;;;;;5090676;28;20561;-76
2022/10/13 02:52:38;;;;;;;5.15;2.17;;;;;;;;;;5077051;28;20441;-79
2022/10/13 02:55:07;;;;;;;3.80;1.67;;;;;;;;;;5077797;28;20043;-78
2022/10/13 02:57:35;;;;;;;1.95;1.40;;;;;;;;;;5082987;28;20051;-78
2022/10/13 03:00:06;;;;;;;10.18;2.65;;;;;;;;;;5081657;28;20048;-78
2022/10/13 03:02:34;;;;;;;2.13;1.40;;;;;;;;;;5086665;28;20485;-78
2022/10/13 03:05:02;;;;;;;3.95;1.77;;;;;;;;;;5078918;28;20048;-78
2022/10/13 03:07:32;;;;;;;7.93;2.17;;;;;;;;;;5086357;28;20052;-78
2022/10/13 03:10:00;;;;;;;3.35;1.40;;;;;;;;;;5073888;28;20048;-78
2022/10/13 03:12:28;;;;;;;2.38;1.65;;;;;;;;;;5076074;28;20421;-78
2022/10/13 03:14:57;;;;;;;3.20;1.23;;;;;;;;;;5081203;28;20040;-78
2022/10/13 03:17:25;;;;;;;3.70;1.48;;;;;;;;;;5075734;28;20476;-78
2022/10/13 03:19:54;;;;;;;3.30;1.63;;;;;;;;;;5081526;28;20043;-78
2022/10/13 03:22:22;;;;;;;3.47;1.55;;;;;;;;;;5083803;28;20040;-78
2022/10/13 03:24:52;;;;;;;4.13;1.65;;;;;;;;;;5075487;28;20403;-78
2022/10/13 03:27:21;;;;;;;3.97;1.85;;;;;;;;;;5085582;28;20047;-78
2022/10/13 03:29:49;;;;;;;5.30;1.90;;;;;;;;;;5091858;28;20051;-77
2022/10/13 03:32:17;;;;;;;3.40;1.40;;;;;;;;;;5083673;28;20087;-78
2022/10/13 03:34:46;;;;;;;1.65;1.20;;;;;;;;;;5088574;28;20119;-77
2022/10/13 03:37:14;;;;;;;3.70;1.50;;;;;;;;;;5081432;28;20135;-78
2022/10/13 03:39:43;;;;;;;2.75;1.58;;;;;;;;;;5083061;28;20040;-78
2022/10/13 03:42:13;;;;;;;5.93;1.45;;;;;;;;;;5086801;28;20044;-78
2022/10/13 03:44:41;;;;;;;2.45;1.23;;;;;;;;;;5088915;28;20056;-79
2022/10/13 03:47:09;;;;;;;14.38;2.67;;;;;;;;;;5086503;28;20058;-78
2022/10/13 03:49:38;;;;;;;3.85;1.90;;;;;;;;;;5074691;28;20060;-78
2022/10/13 03:52:07;;;;;;;4.40;1.48;;;;;;;;;;5093108;28;20055;-78
2022/10/13 03:54:35;;;;;;;3.33;1.77;;;;;;;;;;5080554;28;20051;-78
2022/10/13 03:57:03;;;;;;;2.75;1.70;;;;;;;;;;5089449;28;20419;-78
2022/10/13 03:59:33;;;;;;;5.32;2.08;;;;;;;;;;5083813;28;20048;-77
2022/10/13 04:02:04;;;;;;;5.88;1.58;;;;;;;;;;5091185;28;20048;-78
2022/10/13 04:04:32;;;;;;;5.28;1.80;;;;;;;;;;5082471;28;20056;-78
2022/10/13 04:07:01;;;;;;;7.68;1.35;;;;;;;;;;5083314;28;20047;-78
2022/10/13 04:09:29;;;;;;;2.85;1.15;;;;;;;;;;5082135;28;20045;-79
2022/10/13 04:11:57;;;;;;;3.45;1.58;;;;;;;;;;5086345;28;20053;-78
2022/10/13 04:14:26;;;;;;;6.03;1.60;;;;;;;;;;5080878;28;20070;-78
2022/10/13 04:16:55;;;;;;;4.05;0.88;;;;;;;;;;5079275;28;20044;-78
2022/10/13 04:19:24;;;;;;;3.72;2.03;;;;;;;;;;5084784;28;20054;-78
2022/10/13 04:21:52;;;;;;;4.35;1.38;;;;;;;;;;5090823;28;20044;-78
2022/10/13 04:24:20;;;;;;;2.63;1.85;;;;;;;;;;5080240;28;20051;-76
2022/10/13 04:26:49;;;;;;;5.72;2.08;;;;;;;;;;5086439;28;20488;-78
2022/10/13 04:29:17;;;;;;;4.28;1.90;;;;;;;;;;5078442;28;20055;-78
2022/10/13 04:31:45;;;;;;;2.70;1.42;;;;;;;;;;5088884;28;20048;-78
2022/10/13 04:34:15;;;;;;;3.78;1.52;;;;;;;;;;5083214;28;20056;-78
2022/10/13 04:36:43;;;;;;;3.60;2.00;;;;;;;;;;5082806;28;20048;-77
2022/10/13 04:39:11;;;;;;;1.48;1.10;;;;;;;;;;5087332;28;20545;-77
2022/10/13 04:41:40;;;;;;;2.97;1.60;;;;;;;;;;5082423;28;20040;-79
2022/10/13 04:44:09;;;;;;;4.15;1.70;;;;;;;;;;5084049;28;20106;-79
2022/10/13 04:46:37;;;;;;;2.70;1.60;;;;;;;;;;5088988;28;20044;-78
2022/10/13 04:49:06;;;;;;;8.90;2.38;;;;;;;;;;5080396;28;20500;-76
2022/10/13 04:51:35;;;;;;;3.08;1.67;;;;;;;;;;5078850;28;20056;-76
2022/10/13 04:54:04;;;;;;;1.67;1.15;;;;;;;;;;5084699;28;20044;-77
2022/10/13 04:56:33;;;;;;;6.68;1.90;;;;;;;;;;5083253;28;20044;-78
2022/10/13 04:59:04;;;;;;;5.20;2.03;;;;;;;;;;5080670;28;20044;-79
2022/10/13 05:01:32;;;;;;;5.22;2.63;;;;;;;;;;5089293;28;20066;-78
2022/10/13 05:04:02;;;;;;;2.17;1.20;;;;;;;;;;5090124;28;20510;-77
2022/10/13 05:06:31;;;;;;;8.88;1.92;;;;;;;;;;5085834;28;20067;-76
2022/10/13 05:09:01;;;;;;;11.68;2.13;;;;;;;;;;5081799;28;20044;-81
2022/10/13 05:11:30;;;;;;;7.90;1.58;;;;;;;;;;5074898;28;20496;-80
2022/10/13 05:13:58;;;;;;;4.80;1.55;;;;;;;;;;5086998;28;20075;-80
2022/10/13 05:16:29;;;;;;;4.47;2.03;;;;;;;;;;5087487;28;20442;-82
2022/10/13 05:18:57;;;;;;;3.03;1.77;;;;;;;;;;5081973;28;20054;-81
2022/10/13 05:21:28;;;;;;;3.45;1.83;;;;;;;;;;5079938;28;20524;-82
2022/10/13 05:23:57;;;;;;;4.97;1.65;;;;;;;;;;5080799;28;20048;-77
2022/10/13 05:26:30;;;;;;;8.00;1.48;;;;;;;;;;5081675;28;20436;-76
2022/10/13 05:28:59;;;;;;;2.65;1.25;;;;;;;;;;5078237;28;20051;-76
2022/10/13 05:31:28;;;;;;;3.33;1.42;;;;;;;;;;5089127;28;20048;-76
2022/10/13 05:33:57;;;;;;;1.80;1.17;;;;;;;;;;5076315;28;20475;-75
2022/10/13 05:36:28;;;;;;;3.17;1.65;;;;;;;;;;5084384;28;20056;-75
2022/10/13 05:38:58;;;;;;;2.97;1.27;;;;;;;;;;5079214;28;20060;-75
2022/10/13 05:41:28;;;;;;;1.27;1.08;;;;;;;;;;5075785;28;20487;-76
2022/10/13 05:43:58;;;;;;;2.85;1.58;;;;;;;;;;5078736;28;20044;-75
2022/10/13 05:46:27;;;;;;;1.05;0.88;;;;;;;;;;5075736;28;20706;-76
2022/10/13 05:48:55;;;;;;;3.67;1.77;;;;;;;;;;5083371;28;20113;-77
2022/10/13 05:51:25;;;;;;;3.92;1.40;;;;;;;;;;5074957;28;20130;-77
2022/10/13 05:53:55;;;;;;;5.07;1.42;;;;;;;;;;5074936;28;20136;-77
2022/10/13 05:56:27;;;;;;;3.08;1.38;;;;;;;;;;5083777;28;20056;-76
2022/10/13 05:58:59;;;;;;;2.03;0.95;;;;;;;;;;5078921;28;20040;-75
2022/10/13 06:01:28;;;;;;;5.15;2.25;;;;;;;;;;5087393;28;20051;-77
2022/10/13 06:03:59;;;;;;;3.60;1.38;;;;;;;;;;5081459;28;20055;-77
2022/10/13 06:06:27;;;;;;;2.25;1.25;;;;;;;;;;5088571;28;20554;-76
2022/10/13 06:08:59;;;;;;;11.52;1.77;;;;;;;;;;5089328;28;20052;-75
2022/10/13 06:11:27;;;;;;;1.38;1.17;;;;;;;;;;5082538;28;20524;-76
2022/10/13 06:13:57;;;;;;;2.15;1.50;;;;;;;;;;5088213;28;20052;-77
2022/10/13 06:16:25;;;;;;;3.65;2.33;;;;;;;;;;5084872;28;20044;-76
2022/10/13 06:18:54;;;;;;;2.78;1.23;;;;;;;;;;5087220;28;20048;-77
2022/10/13 06:21:22;;;;;;;6.15;1.80;;;;;;;;;;5080012;28;20131;-76
2022/10/13 06:23:50;;;;;;;2.65;1.13;;;;;;;;;;5074552;28;20053;-77
2022/10/13 06:26:18;;;;;;;3.35;1.95;;;;;;;;;;5075705;28;20083;-76
2022/10/13 06:28:47;;;;;;;2.25;1.13;;;;;;;;;;5078214;28;20055;-77
2022/10/13 06:31:21;;;;;;;5.10;1.65;;;;;;;;;;5076571;28;21531;-76
2022/10/13 06:33:49;;;;;;;3.15;1.83;;;;;;;;;;5076584;28;20045;-77
2022/10/13 06:36:18;;;;;;;1.90;0.95;;;;;;;;;;5072003;28;20053;-77
2022/10/13 06:38:46;;;;;;;5.93;1.42;;;;;;;;;;5084381;28;20123;-78
2022/10/13 06:41:15;;;;;;;2.80;1.20;;;;;;;;;;5085753;28;20500;-77
2022/10/13 06:43:43;;;;;;;2.60;1.88;;;;;;;;;;5072869;28;20044;-77
2022/10/13 06:46:12;;;;;;;1.98;1.35;;;;;;;;;;5086181;28;20488;-78
2022/10/13 06:48:42;;;;;;;2.60;1.20;;;;;;;;;;5077123;28;20040;-77
2022/10/13 06:51:11;;;;;;;2.28;0.93;;;;;;;;;;5086374;28;20052;-78
2022/10/13 06:53:40;;;;;;;4.60;1.42;;;;;;;;;;5081710;28;20048;-77
2022/10/13 06:56:08;;;;;;;3.38;2.05;;;;;;;;;;5081075;28;20047;-77
2022/10/13 06:58:37;;;;;;;4.25;1.70;;;;;;;;;;5077823;28;20050;-78
2022/10/13 07:01:06;;;;;;;3.25;1.42;;;;;;;;;;5081875;28;20051;-77
2022/10/13 07:03:34;;;;;;;4.05;1.60;;;;;;;;;;5084186;28;20284;-78
2022/10/13 07:06:06;;;;;;;2.10;1.05;;;;;;;;;;5079674;28;20056;-76
2022/10/13 07:08:35;;;;;;;3.50;1.30;;;;;;;;;;5082820;28;20045;-76
2022/10/13 07:11:07;;;;;;;3.17;1.50;;;;;;;;;;5071647;28;20049;-77
2022/10/13 07:13:42;;;;;;;4.88;1.40;;;;;;;;;;5084871;28;20068;-78
2022/10/13 07:16:14;;;;;;;3.00;1.40;;;;;;;;;;5071347;28;20105;-76
2022/10/13 07:18:45;;;;;;;6.53;1.70;;;;;;;;;;5086268;28;20075;-77
2022/10/13 07:21:14;;;;;;;1.40;0.77;;;;;;;;;;5081785;28;20044;-77
2022/10/13 07:23:43;;;;;;;2.75;1.38;;;;;;;;;;5081602;28;20463;-78
2022/10/13 07:26:12;;;;;;;3.55;1.75;;;;;;;;;;5078956;28;21224;-78
2022/10/13 07:28:41;;;;;;;6.38;1.15;;;;;;;;;;5072576;28;20055;-76
2022/10/13 07:31:12;;;;;;;9.00;2.28;;;;;;;;;;5072170;28;20407;-79
2022/10/13 07:33:41;;;;;;;2.33;1.20;;;;;;;;;;5070305;28;20567;-77
2022/10/13 07:36:10;;;;;;;2.90;1.40;;;;;;;;;;5072789;28;20484;-78
2022/10/13 07:38:40;;;;;;;7.60;2.33;;;;;;;;;;5071131;28;20051;-77
2022/10/13 07:41:10;;;;;;;4.10;1.70;;;;;;;;;;5073914;28;20044;-78
2022/10/13 07:43:39;;;;;;;6.30;2.28;;;;;;;;;;5081676;28;20047;-78
2022/10/13 07:46:08;;;;;;;5.07;1.35;;;;;;;;;;5078545;28;20063;-77
2022/10/13 07:48:37;;;;;;;3.15;1.52;;;;;;;;;;5090456;28;20087;-77
2022/10/13 07:51:06;;;;;;;6.13;2.90;;;;;;;;;;5076302;28;20044;-77
2022/10/13 07:53:35;;;;;;;3.88;2.15;;;;;;;;;;5071574;28;20051;-77
2022/10/13 07:56:06;;;;;;;1.60;1.05;;;;;;;;;;5082538;28;20066;-78
2022/10/13 07:58:34;;;;;;;7.15;2.00;;;;;;;;;;5083073;28;20062;-77
2022/10/13 08:01:03;;;;;;;3.88;2.00;;;;;;;;;;5090057;28;20433;-77
2022/10/13 08:03:32;;;;;;;4.22;2.33;;;;;;;;;;5084278;28;20052;-76
2022/10/13 08:06:02;;;;;;;2.30;1.25;;;;;;;;;;5083286;28;20104;-78
2022/10/13 08:08:30;;;;;;;4.80;1.45;;;;;;;;;;5078848;28;20076;-77
2022/10/13 08:11:02;;;;;;;8.90;2.13;;;;;;;;;;5086669;28;20123;-76
2022/10/13 08:13:32;;;;;;;5.50;1.90;;;;;;;;;;5081101;28;20044;-77
2022/10/13 08:16:01;;;;;;;5.80;2.85;;;;;;;;;;5080586;28;20044;-78
2022/10/13 08:18:30;;;;;;;4.50;1.98;;;;;;;;;;5081597;28;20052;-77
2022/10/13 08:21:01;;;;;;;3.97;2.30;;;;;;;;;;5092623;28;20044;-77
2022/10/13 08:23:49;;;;;;;9.40;2.80;;;;;;;;;;5070488;28;20485;-78
2022/10/13 08:26:19;;;;;;;2.88;1.05;;;;;;;;;;5074390;28;20080;-78
2022/10/13 08:28:49;;;;;;;4.13;1.83;;;;;;;;;;5078985;28;20044;-77
2022/10/13 08:31:38;;;;;;;3.38;1.50;;;;;;;;;;5074376;28;20052;-76
2022/10/13 08:34:06;;;;;;;4.65;1.65;;;;;;;;;;5085901;28;20048;-79
2022/10/13 08:36:35;;;;;;;4.53;1.85;;;;;;;;;;5076908;28;20514;-79
2022/10/13 08:39:03;;;;;;;5.30;2.42;;;;;;;;;;5086737;28;20048;-78
2022/10/13 08:41:33;;;;;;;4.68;2.35;;;;;;;;;;5081035;28;20068;-78
2022/10/13 08:44:05;;;;;;;3.38;1.88;;;;;;;;;;5081493;28;20050;-78
2022/10/13 08:46:57;;;;;;;4.25;2.08;;;;;;;;;;5076298;28;20449;-78
2022/10/13 08:49:26;;;;;;;4.28;1.60;;;;;;;;;;5086386;28;20052;-78
2022/10/13 08:51:55;;;;;;;2.97;1.58;;;;;;;;;;5079143;28;20048;-79
2022/10/13 08:54:25;;;;;;;6.93;1.88;;;;;;;;;;5080034;28;20044;-79
2022/10/13 08:56:54;;;;;;;5.53;2.55;;;;;;;;;;5075183;28;20256;-79
2022/10/13 08:59:24;;;;;;;8.07;1.90;;;;;;;;;;5078267;28;20135;-79
2022/10/13 09:01:54;;;;;;;4.93;2.25;;;;;;;;;;5083381;28;20040;-79
2022/10/13 09:04:28;;;;;;;8.52;3.75;;;;;;;;;;5082650;28;20087;-79
2022/10/13 09:07:02;;;;;;;8.25;1.88;;;;;;;;;;5077034;28;20044;-79
2022/10/13 09:09:31;;;;;;;5.25;2.13;;;;;;;;;;5080660;28;20408;-79
2022/10/13 09:11:59;;;;;;;6.22;2.45;;;;;;;;;;5084381;28;20044;-79
2022/10/13 09:14:31;;;;;;;10.77;2.88;;;;;;;;;;5088184;28;20059;-79
2022/10/13 09:17:13;;;;;;;5.70;2.70;;;;;;;;;;5080192;28;20048;-79
2022/10/13 09:19:57;;;;;;;6.45;3.03;;;;;;;;;;5077230;28;20056;-78
2022/10/13 09:22:27;;;;;;;5.82;2.13;;;;;;;;;;5085931;28;20466;-79
2022/10/13 09:25:17;;;;;;;7.03;1.88;;;;;;;;;;5079019;28;20051;-78
2022/10/13 09:27:47;;;;;;;4.13;2.13;;;;;;;;;;5080541;28;20045;-79
2022/10/13 09:30:24;;;;;;;5.60;1.63;;;;;;;;;;5076415;28;20131;-78
2022/10/13 09:32:59;;;;;;;3.33;2.35;;;;;;;;;;5077223;28;20071;-79
2022/10/13 09:35:28;;;;;;;6.10;1.83;;;;;;;;;;5079117;28;20083;-79
2022/10/13 09:38:03;;;;;;;5.13;2.25;;;;;;;;;;5085678;28;20127;-80
2022/10/13 09:40:32;;;;;;;6.00;2.95;;;;;;;;;;5077925;28;20406;-80
2022/10/13 09:43:02;;;;;;;2.35;1.48;;;;;;;;;;5081754;28;20048;-79
2022/10/13 09:45:32;;;;;;;4.60;2.45;;;;;;;;;;5083064;28;20045;-79
2022/10/13 09:48:03;;;;;;;5.53;2.42;;;;;;;;;;5072131;28;20484;-78
2022/10/13 09:50:33;;;;;;;4.85;1.63;;;;;;;;;;5080321;28;20036;-80
2022/10/13 09:53:11;;;;;;;3.70;1.73;;;;;;;;;;5091728;28;20059;-79
2022/10/13 09:55:39;;;;;;;7.25;1.67;;;;;;;;;;5085119;28;20083;-80
2022/10/13 09:58:12;;;;;;;8.27;2.45;;;;;;;;;;5084914;28;20162;-79
2022/10/13 10:00:42;;;;;;;5.97;1.77;;;;;;;;;;5086010;28;20058;-79
2022/10/13 10:03:15;;;;;;;9.27;1.98;;;;;;;;;;5085415;28;20453;-80
2022/10/13 10:05:47;;;;;;;7.30;1.45;;;;;;;;;;5077063;28;20059;-79
2022/10/13 10:08:17;;;;;;;5.10;1.58;;;;;;;;;;5076730;28;20040;-82
2022/10/13 10:10:46;;;;;;;2.10;1.33;;;;;;;;;;5079411;28;20054;-81
2022/10/13 10:13:15;;;;;;;4.90;1.77;;;;;;;;;;5083621;28;20055;-80
2022/10/13 10:15:51;;;;;;;5.38;1.38;;;;;;;;;;5081194;28;20050;-80
2022/10/13 10:18:22;;;;;;;2.95;1.65;;;;;;;;;;5082367;28;20159;-80
2022/10/13 10:20:56;;;;;;;8.48;1.73;;;;;;;;;;5089408;28;20492;-80
2022/10/13 10:23:30;;;;;;;4.78;1.67;;;;;;;;;;5077195;28;20076;-80
2022/10/13 10:26:00;;;;;;;4.25;1.35;;;;;;;;;;5071808;28;20098;-80
2022/10/13 10:28:40;;;;;;;3.25;1.42;;;;;;;;;;5077056;28;20044;-79
2022/10/13 10:31:17;;;;;;;2.15;1.17;;;;;;;;;;5076298;28;20130;-79
2022/10/13 10:33:51;;;;;;;4.25;1.27;;;;;;;;;;5075971;28;20055;-79
2022/10/13 10:36:22;;;;;;;2.22;1.50;;;;;;;;;;5081807;28;20052;-79
2022/10/13 10:38:51;;;;;;;5.78;2.22;;;;;;;;;;5083898;28;20044;-79
2022/10/13 10:41:27;;;;;;;5.50;1.33;;;;;;;;;;5074073;28;21696;-79
2022/10/13 10:43:57;;;;;;;5.63;1.38;;;;;;;;;;5083929;28;20059;-79
2022/10/13 10:46:29;;;;;;;1.42;0.70;;;;;;;;;;5071719;28;20393;-80
2022/10/13 10:48:59;;;;;;;7.35;1.30;;;;;;;;;;5081986;28;20062;-80
2022/10/13 10:51:30;;;;;;;2.75;1.42;;;;;;;;;;5077613;28;20145;-80
2022/10/13 10:54:05;;;;;;;6.25;1.45;;;;;;;;;;5075937;28;20507;-80
2022/10/13 10:56:36;;;;;;;7.88;1.35;;;;;;;;;;5090099;28;20454;-80
2022/10/13 10:59:07;;;;;;;3.25;1.45;;;;;;;;;;5080007;28;20048;-80
2022/10/13 11:01:42;;;;;;;3.00;2.40;;;;;;;;;;5079993;28;20052;-81
2022/10/13 11:04:31;;;;;;;1.85;1.25;;;;;;;;;;5089304;28;20372;-79
2022/10/13 11:06:59;;;;;;;7.20;1.85;;;;;;;;;;5079844;28;20427;-79
2022/10/13 11:09:46;;;;;;;3.10;1.50;;;;;;;;;;5076508;28;20052;-79
2022/10/13 11:12:22;;;;;;;3.90;1.98;;;;;;;;;;5075211;28;20048;-79
2022/10/13 11:15:04;;;;;;;4.20;1.27;;;;;;;;;;5073898;28;20048;-79
2022/10/13 11:17:36;;;;;;;5.35;1.65;;;;;;;;;;5072993;28;20044;-80
2022/10/13 11:20:34;;;;;;;6.65;2.17;;;;;;;;;;5084232;28;20484;-79
2022/10/13 11:23:26;;;;;;;3.13;1.20;;;;;;;;;;5078507;28;20474;-80
2022/10/13 11:26:14;;;;;;;6.53;1.95;;;;;;;;;;5087584;28;20067;-79
2022/10/13 11:28:46;;;;;;;6.38;1.95;;;;;;;;;;5075761;28;20036;-79
2022/10/13 11:31:33;;;;;;;9.00;1.55;;;;;;;;;;5076319;28;20051;-78
2022/10/13 11:34:05;;;;;;;2.28;1.65;;;;;;;;;;5048831;28;20488;-80
2022/10/13 11:36:39;;;;;;;3.63;2.10;;;;;;;;;;5079635;28;20136;-79
2022/10/13 11:39:24;;;;;;;4.83;1.90;;;;;;;;;;5078078;28;20489;-80
2022/10/13 11:41:59;;;;;;;2.05;1.25;;;;;;;;;;5073061;28;20283;-78
2022/10/13 11:44:31;;;;;;;3.55;1.73;;;;;;;;;;5072566;28;20141;-80
2022/10/13 11:47:03;;;;;;;4.40;1.30;;;;;;;;;;5077663;28;20044;-79
2022/10/13 11:49:52;;;;;;;5.13;1.10;;;;;;;;;;5078672;28;20101;-79
2022/10/13 11:52:39;;;;;;;2.33;1.13;;;;;;;;;;5078484;28;20056;-78
2022/10/13 11:55:12;;;;;;;2.67;1.25;;;;;;;;;;5084956;28;20056;-79
2022/10/13 11:57:41;;;;;;;6.22;1.48;;;;;;;;;;5079597;28;20102;-78
2022/10/13 12:00:14;;;;;;;7.38;2.13;;;;;;;;;;5080187;28;20048;-80
2022/10/13 12:02:49;;;;;;;4.90;2.13;;;;;;;;;;5083269;28;20052;-80
2022/10/13 12:05:21;;;;;;;3.25;1.23;;;;;;;;;;5081531;28;20062;-79
2022/10/13 12:07:52;;;;;;;4.72;1.55;;;;;;;;;;5085687;28;20052;-79
2022/10/13 12:10:23;;;;;;;4.38;1.58;;;;;;;;;;5076699;28;20058;-79
2022/10/13 12:12:52;;;;;;;5.80;1.55;;;;;;;;;;5083877;28;20059;-80
2022/10/13 12:15:30;;;;;;;1.35;0.90;;;;;;;;;;5077221;28;20389;-80
2022/10/13 12:17:59;;;;;;;9.38;1.73;;;;;;;;;;5078729;28;20084;-79
2022/10/13 12:20:29;;;;;;;2.55;1.35;;;;;;;;;;5077135;28;20782;-80
2022/10/13 12:22:59;;;;;;;3.90;1.40;;;;;;;;;;5074815;28;20058;-80
2022/10/13 12:25:29;;;;;;;2.17;1.00;;;;;;;;;;5077069;28;20500;-80
2022/10/13 12:27:59;;;;;;;2.53;1.17;;;;;;;;;;5079837;28;20048;-80
2022/10/13 12:30:29;;;;;;;2.15;1.65;;;;;;;;;;5072758;28;20152;-80
2022/10/13 12:32:58;;;;;;;1.35;1.08;;;;;;;;;;5082567;28;20048;-80
2022/10/13 12:35:28;;;;;;;2.30;1.23;;;;;;;;;;5075980;28;20132;-78
2022/10/13 12:37:57;;;;;;;4.00;1.92;;;;;;;;;;5080408;28;20066;-78
2022/10/13 12:40:28;;;;;;;3.88;1.80;;;;;;;;;;5083622;28;20056;-80
2022/10/13 12:42:56;;;;;;;5.53;2.05;;;;;;;;;;5079569;28;20048;-80
2022/10/13 12:45:27;;;;;;;3.55;1.63;;;;;;;;;;5084446;28;20036;-80
2022/10/13 12:47:56;;;;;;;7.68;1.25;;;;;;;;;;5076278;28;20075;-79
2022/10/13 12:50:36;;;;;;;1.58;1.20;;;;;;;;;;5075172;28;20052;-80
2022/10/13 12:53:12;;;;;;;6.70;2.25;;;;;;;;;;5084701;28;20048;-80
2022/10/13 12:55:50;;;;;;;2.75;1.38;;;;;;;;;;5080318;28;20076;-79
2022/10/13 12:58:20;;;;;;;4.25;2.25;;;;;;;;;;5078904;28;20048;-80
2022/10/13 13:01:07;;;;;;;3.72;1.33;;;;;;;;;;5074293;28;20045;-79
2022/10/13 13:03:37;;;;;;;3.92;1.58;;;;;;;;;;5082670;28;20048;-80
2022/10/13 13:06:27;;;;;;;3.08;1.80;;;;;;;;;;5087750;28;20515;-81
2022/10/13 13:09:09;;;;;;;9.43;2.05;;;;;;;;;;5074704;28;20052;-81
2022/10/13 13:11:39;;;;;;;2.60;1.33;;;;;;;;;;5082720;28;20040;-80
2022/10/13 13:14:25;;;;;;;2.17;1.23;;;;;;;;;;5086082;28;20056;-80
2022/10/13 13:17:04;;;;;;;2.97;1.45;;;;;;;;;;5082174;28;20040;-80
2022/10/13 13:19:33;;;;;;;3.15;1.50;;;;;;;;;;5079630;28;20084;-80
2022/10/13 13:22:02;;;;;;;2.85;1.25;;;;;;;;;;5080802;28;20127;-79
2022/10/13 13:24:31;;;;;;;3.85;1.70;;;;;;;;;;5079958;28;20044;-80
2022/10/13 13:27:18;;;;;;;3.78;1.58;;;;;;;;;;5073357;28;20107;-80
2022/10/13 13:29:47;;;;;;;1.35;0.65;;;;;;;;;;5086161;28;20052;-79
2022/10/13 13:32:17;;;;;;;3.45;1.75;;;;;;;;;;5081965;28;20042;-79
2022/10/13 13:34:48;;;;;;;1.85;1.13;;;;;;;;;;5077848;28;20123;-79
2022/10/13 13:37:31;;;;;;;3.05;1.10;;;;;;;;;;5084285;28;20051;-78
2022/10/13 13:39:59;;;;;;;2.35;1.30;;;;;;;;;;5076524;28;20047;-79
2022/10/13 13:42:29;;;;;;;4.07;1.15;;;;;;;;;;5074845;28;20056;-80
2022/10/13 13:44:58;;;;;;;2.80;1.65;;;;;;;;;;5075204;28;20040;-80
2022/10/13 13:47:27;;;;;;;4.00;1.45;;;;;;;;;;5085552;28;20048;-80
2022/10/13 13:49:57;;;;;;;4.82;1.85;;;;;;;;;;5079248;28;20075;-80
2022/10/13 13:52:26;;;;;;;5.15;1.70;;;;;;;;;;5082290;28;20056;-80
2022/10/13 13:54:55;;;;;;;4.70;1.50;;;;;;;;;;5080789;28;20040;-80
2022/10/13 13:57:23;;;;;;;2.53;1.10;;;;;;;;;;5089902;28;20495;-79
2022/10/13 13:59:53;;;;;;;4.07;1.05;;;;;;;;;;5085603;28;20067;-81
2022/10/13 14:02:21;;;;;;;6.05;1.35;;;;;;;;;;5080166;28;20060;-80
2022/10/13 14:04:50;;;;;;;4.63;1.83;;;;;;;;;;5089548;28;20044;-80
2022/10/13 14:07:18;;;;;;;5.47;1.90;;;;;;;;;;5084540;28;20072;-80
2022/10/13 14:09:47;;;;;;;4.53;1.08;;;;;;;;;;5072377;28;20442;-79
2022/10/13 14:12:15;;;;;;;3.58;1.30;;;;;;;;;;5082099;28;20085;-80
2022/10/13 14:14:44;;;;;;;0.88;0.57;;;;;;;;;;5084337;28;20052;-81
2022/10/13 14:17:14;;;;;;;4.10;1.20;;;;;;;;;;5076066;28;20564;-80
2022/10/13 14:19:42;;;;;;;7.03;1.42;;;;;;;;;;5071685;28;20477;-80
2022/10/13 14:22:11;;;;;;;2.17;1.65;;;;;;;;;;5071354;28;20060;-80
2022/10/13 14:24:39;;;;;;;2.33;1.17;;;;;;;;;;5082000;28;20510;-80
2022/10/13 14:27:08;;;;;;;2.25;1.05;;;;;;;;;;5079708;28;20047;-80
2022/10/13 14:29:36;;;;;;;2.67;1.17;;;;;;;;;;5076256;28;20045;-80
2022/10/13 14:32:04;;;;;;;4.35;1.73;;;;;;;;;;5078011;28;20532;-81
2022/10/13 14:34:34;;;;;;;2.97;1.10;;;;;;;;;;5082160;28;20081;-80
2022/10/13 14:37:03;;;;;;;4.15;1.20;;;;;;;;;;5083226;28;20048;-80
2022/10/13 14:39:31;;;;;;;2.10;1.20;;;;;;;;;;5078483;28;20500;-80
2022/10/13 14:42:00;;;;;;;2.70;1.63;;;;;;;;;;5074734;28;20128;-79
2022/10/13 14:44:28;;;;;;;2.95;1.23;;;;;;;;;;5081889;28;20040;-81
2022/10/13 14:46:57;;;;;;;3.17;1.05;;;;;;;;;;5077143;28;20556;-80
2022/10/13 14:49:26;;;;;;;1.48;0.70;;;;;;;;;;5075087;28;20057;-81
2022/10/13 14:51:55;;;;;;;2.83;0.68;;;;;;;;;;5075868;28;20068;-80
2022/10/13 14:54:24;;;;;;;5.25;1.50;;;;;;;;;;5073463;28;20054;-81
2022/10/13 14:56:52;;;;;;;3.15;1.33;;;;;;;;;;5073108;28;20506;-80
2022/10/13 14:59:21;;;;;;;5.03;1.48;;;;;;;;;;5075346;28;20079;-80
2022/10/13 15:01:49;;;;;;;4.00;1.05;;;;;;;;;;5077877;28;20068;-80
2022/10/13 15:04:18;;;;;;;7.70;1.10;;;;;;;;;;5081866;28;20052;-80
2022/10/13 15:06:46;;;;;;;2.15;1.27;;;;;;;;;;5075093;28;20492;-80